createdAt,value
2019-03-10T00:01:49.535Z,99855.52
2019-03-10T00:04:20.088Z,99849.84
2019-03-10T00:06:50.597Z,99857.11
2019-03-10T00:09:21.050Z,99856.52
2019-03-10T00:11:51.647Z,99853.98
2019-03-10T00:14:22.312Z,99876.02
2019-03-10T00:17:00.430Z,99870.72
2019-03-10T00:19:30.659Z,99892.13
2019-03-10T00:22:00.872Z,99865.16
2019-03-10T00:24:31.698Z,99870.83
2019-03-10T00:27:04.246Z,99864.68
2019-03-10T00:29:34.614Z,99872.25
2019-03-10T00:32:05.124Z,99856.20
2019-03-10T00:34:35.792Z,99881.06
2019-03-10T00:37:06.343Z,99869.80
2019-03-10T00:40:16.545Z,99882.02
2019-03-10T00:43:57.642Z,99880.69
2019-03-10T00:47:34.161Z,99879.94
2019-03-10T00:50:31.973Z,99887.41
2019-03-10T00:53:02.825Z,99881.73
2019-03-10T00:55:33.013Z,99894.03
2019-03-10T00:58:03.278Z,99887.98
2019-03-10T01:00:33.791Z,99907.48
2019-03-10T01:03:03.931Z,99898.01
2019-03-10T01:05:34.484Z,99886.64
2019-03-10T01:08:04.702Z,99901.20
2019-03-10T01:10:35.257Z,99892.31
2019-03-10T01:13:05.491Z,99903.38
2019-03-10T01:15:36.408Z,99877.58
2019-03-10T01:18:06.722Z,99897.06
2019-03-10T01:20:36.905Z,99891.88
2019-03-10T01:23:07.167Z,99902.36
2019-03-10T01:25:37.387Z,99893.67
2019-03-10T01:28:10.722Z,99903.52
2019-03-10T01:30:57.031Z,99890.28
2019-03-10T01:34:04.711Z,99907.08
2019-03-10T01:36:33.472Z,99900.29
2019-03-10T01:39:05.846Z,99905.59
2019-03-10T01:41:36.034Z,99911.63
2019-03-10T01:44:06.218Z,99898.42
2019-03-10T01:46:37.223Z,99899.84
2019-03-10T01:49:07.588Z,99909.58
2019-03-10T01:51:38.764Z,99902.78
2019-03-10T01:54:08.949Z,99897.56
2019-03-10T01:56:39.138Z,99890.67
2019-03-10T01:59:09.325Z,99893.04
2019-03-10T02:01:39.730Z,99909.97
2019-03-10T02:04:09.908Z,99895.51
2019-03-10T02:06:40.467Z,99891.44
2019-03-10T02:09:11.277Z,99894.94
2019-03-10T02:11:41.436Z,99891.81
2019-03-10T02:14:12.105Z,99882.83
2019-03-10T02:16:42.270Z,99884.63
2019-03-10T02:19:12.709Z,99886.32
2019-03-10T02:21:43.250Z,99891.61
2019-03-10T02:24:23.387Z,99876.11
2019-03-10T02:26:46.414Z,99876.01
2019-03-10T02:29:16.899Z,99888.30
2019-03-10T02:31:47.393Z,99878.02
2019-03-10T02:34:17.890Z,99879.61
2019-03-10T02:36:48.371Z,99878.56
2019-03-10T02:39:18.602Z,99878.46
2019-03-10T02:41:49.106Z,99874.48
2019-03-10T02:44:19.333Z,99877.61
2019-03-10T02:46:49.841Z,99869.67
2019-03-10T02:49:20.411Z,99863.53
2019-03-10T02:51:50.622Z,99858.81
2019-03-10T02:54:20.832Z,99877.06
2019-03-10T02:56:51.589Z,99882.94
2019-03-10T02:59:21.719Z,99885.20
2019-03-10T03:01:52.284Z,99882.16
2019-03-10T03:04:22.469Z,99879.91
2019-03-10T03:06:52.956Z,99851.92
2019-03-10T03:09:23.190Z,99876.69
2019-03-10T03:11:53.850Z,99864.87
2019-03-10T03:14:24.090Z,99881.70
2019-03-10T03:16:54.600Z,99887.47
2019-03-10T03:19:25.049Z,99882.75
2019-03-10T03:21:55.316Z,99884.92
2019-03-10T03:24:25.841Z,99880.64
2019-03-10T03:26:56.159Z,99881.59
2019-03-10T03:29:26.316Z,99883.97
2019-03-10T03:31:56.602Z,99878.20
2019-03-10T03:34:26.825Z,99855.33
2019-03-10T03:36:57.001Z,99862.52
2019-03-10T03:39:32.948Z,99875.38
2019-03-10T03:42:03.257Z,99877.17
2019-03-10T03:44:33.632Z,99883.86
2019-03-10T03:47:04.485Z,99882.62
2019-03-10T03:49:35.147Z,99880.36
2019-03-10T03:52:05.481Z,99875.73
2019-03-10T03:54:35.699Z,99873.66
2019-03-10T03:57:05.969Z,99883.50
2019-03-10T03:59:36.698Z,99887.94
2019-03-10T04:02:11.912Z,99892.28
2019-03-10T04:04:42.246Z,99889.73
2019-03-10T04:07:12.446Z,99884.61
2019-03-10T04:09:42.647Z,99885.55
2019-03-10T04:12:13.000Z,99878.56
2019-03-10T04:14:44.050Z,99879.14
2019-03-10T04:17:14.320Z,99890.94
2019-03-10T04:19:44.995Z,99883.95
2019-03-10T04:22:15.460Z,99883.20
2019-03-10T04:24:45.639Z,99881.03
2019-03-10T04:27:17.252Z,99875.64
2019-03-10T04:29:47.420Z,99865.53
2019-03-10T04:32:17.631Z,99874.80
2019-03-10T04:34:48.126Z,99870.45
2019-03-10T04:37:18.314Z,99876.69
2019-03-10T04:39:48.844Z,99872.78
2019-03-10T04:42:19.065Z,99877.70
2019-03-10T04:44:49.250Z,99880.06
2019-03-10T04:47:19.418Z,99870.06
2019-03-10T04:49:49.641Z,99871.37
2019-03-10T04:52:20.454Z,99864.77
2019-03-10T04:55:08.552Z,99863.06
2019-03-10T04:57:45.721Z,99869.68
2019-03-10T05:00:16.214Z,99869.88
2019-03-10T05:02:46.404Z,99854.01
2019-03-10T05:05:16.848Z,99856.66
2019-03-10T05:07:48.176Z,99857.56
2019-03-10T05:10:19.400Z,99857.66
2019-03-10T05:12:50.332Z,99859.84
2019-03-10T05:15:20.490Z,99854.92
2019-03-10T05:17:50.641Z,99855.49
2019-03-10T05:20:22.114Z,99855.87
2019-03-10T05:22:52.697Z,99850.58
2019-03-10T05:25:22.881Z,99855.49
2019-03-10T05:27:53.786Z,99855.12
2019-03-10T05:30:24.411Z,99852.66
2019-03-10T05:32:54.840Z,99854.36
2019-03-10T05:35:25.454Z,99853.42
2019-03-10T05:37:55.710Z,99847.94
2019-03-10T05:40:25.883Z,99856.24
2019-03-10T05:42:56.102Z,99851.05
2019-03-10T05:45:26.303Z,99850.30
2019-03-10T05:47:56.752Z,99839.25
2019-03-10T05:50:26.949Z,99843.79
2019-03-10T05:52:57.125Z,99837.17
2019-03-10T05:55:27.902Z,99839.45
2019-03-10T05:57:58.110Z,99832.46
2019-03-10T06:00:28.866Z,99832.09
2019-03-10T06:02:59.110Z,99833.95
2019-03-10T06:05:29.410Z,99830.77
2019-03-10T06:07:59.956Z,99827.27
2019-03-10T06:10:30.357Z,99827.17
2019-03-10T06:13:00.684Z,99824.33
2019-03-10T06:15:31.214Z,99822.63
2019-03-10T06:18:01.424Z,99809.59
2019-03-10T06:20:31.718Z,99815.56
2019-03-10T06:23:01.996Z,99807.81
2019-03-10T06:25:34.995Z,99797.13
2019-03-10T06:28:04.211Z,99790.99
2019-03-10T06:30:34.616Z,99786.92
2019-03-10T06:33:05.225Z,99783.80
2019-03-10T06:35:35.736Z,99777.67
2019-03-10T06:38:06.085Z,99776.34
2019-03-10T06:40:36.263Z,99771.05
2019-03-10T06:43:07.144Z,99777.09
2019-03-10T06:45:37.979Z,99775.77
2019-03-10T06:48:08.222Z,99776.45
2019-03-10T06:50:38.701Z,99780.86
2019-03-10T06:53:08.851Z,99777.84
2019-03-10T06:55:39.153Z,99777.75
2019-03-10T06:58:11.030Z,99773.30
2019-03-10T07:00:41.612Z,99771.60
2019-03-10T07:03:11.806Z,99774.42
2019-03-10T07:05:42.587Z,99760.03
2019-03-10T07:08:13.136Z,99758.91
2019-03-10T07:10:43.689Z,99761.34
2019-03-10T07:13:15.259Z,99766.53
2019-03-10T07:15:45.478Z,99766.26
2019-03-10T07:18:16.186Z,99772.19
2019-03-10T07:20:46.441Z,99764.89
2019-03-10T07:23:18.101Z,99772.55
2019-03-10T07:26:05.283Z,99773.67
2019-03-10T07:29:00.884Z,99778.10
2019-03-10T07:32:09.096Z,99768.25
2019-03-10T07:34:58.412Z,99760.47
2019-03-10T07:37:53.800Z,99757.23
2019-03-10T07:40:51.139Z,99748.45
2019-03-10T07:43:39.327Z,99750.25
2019-03-10T07:46:24.473Z,99749.85
2019-03-10T07:49:12.297Z,99745.78
2019-03-10T07:52:19.781Z,99745.06
2019-03-10T07:55:10.269Z,99733.52
2019-03-10T07:58:06.730Z,99732.57
2019-03-10T08:00:53.687Z,99737.47
2019-03-10T08:03:39.446Z,99723.06
2019-03-10T08:06:27.019Z,99726.12
2019-03-10T08:09:06.993Z,99717.48
2019-03-10T08:11:59.516Z,99713.06
2019-03-10T08:14:40.460Z,99718.54
2019-03-10T08:17:19.783Z,99710.84
2019-03-10T08:20:11.766Z,99715.60
2019-03-10T08:22:51.869Z,99713.69
2019-03-10T08:25:50.300Z,99712.75
2019-03-10T08:28:29.712Z,99709.34
2019-03-10T08:31:19.277Z,99717.74
2019-03-10T08:34:18.904Z,99712.74
2019-03-10T08:37:06.656Z,99712.33
2019-03-10T08:40:02.045Z,99708.86
2019-03-10T08:42:50.034Z,99696.84
2019-03-10T08:45:44.503Z,99697.27
2019-03-10T08:48:36.511Z,99695.67
2019-03-10T08:51:24.386Z,99697.05
2019-03-10T08:54:05.520Z,99684.24
2019-03-10T08:56:57.544Z,99679.81
2019-03-10T08:59:46.116Z,99678.67
2019-03-10T09:02:38.692Z,99677.52
2019-03-10T09:05:26.049Z,99665.97
2019-03-10T09:08:13.997Z,99669.42
2019-03-10T09:11:02.005Z,99664.48
2019-03-10T09:13:47.240Z,99655.51
2019-03-10T09:16:42.250Z,99661.12
2019-03-10T09:19:18.459Z,99650.61
2019-03-10T09:22:07.232Z,99641.14
2019-03-10T09:24:48.165Z,99639.77
2019-03-10T09:27:38.153Z,99633.89
2019-03-10T09:30:26.741Z,99629.14
2019-03-10T09:33:14.347Z,99625.45
2019-03-10T09:35:50.715Z,99628.81
2019-03-10T09:38:37.273Z,99627.33
2019-03-10T09:41:35.647Z,99619.39
2019-03-10T09:44:27.858Z,99615.36
2019-03-10T09:47:07.535Z,99621.41
2019-03-10T09:49:55.071Z,99614.48
2019-03-10T09:53:02.750Z,99611.70
2019-03-10T09:56:06.877Z,99604.77
2019-03-10T09:59:14.161Z,99595.00
2019-03-10T10:02:04.768Z,99594.67
2019-03-10T10:04:56.198Z,99591.50
2019-03-10T10:07:43.936Z,99589.83
2019-03-10T10:10:28.425Z,99587.03
2019-03-10T10:13:16.270Z,99587.03
2019-03-10T10:16:14.374Z,99574.56
2019-03-10T10:19:20.873Z,99574.56
2019-03-10T10:22:21.917Z,99568.44
2019-03-10T10:25:11.226Z,99568.44
2019-03-10T10:28:09.980Z,99566.34
2019-03-10T10:30:59.130Z,99572.98
2019-03-10T10:33:38.480Z,99571.78
2019-03-10T10:36:25.842Z,99564.23
2019-03-10T10:39:18.664Z,99564.23
2019-03-10T10:42:16.666Z,99563.23
2019-03-10T10:45:18.840Z,99551.55
2019-03-10T10:48:05.721Z,99545.33
2019-03-10T10:51:01.025Z,99542.25
2019-03-10T10:53:44.803Z,99535.72
2019-03-10T10:56:32.208Z,99539.20
2019-03-10T10:59:21.886Z,99537.31
2019-03-10T11:02:11.102Z,99531.08
2019-03-10T11:04:53.551Z,99537.31
2019-03-10T11:07:41.611Z,99525.48
2019-03-10T11:10:36.874Z,99517.32
2019-03-10T11:13:26.179Z,99518.64
2019-03-10T11:16:14.577Z,99510.71
2019-03-10T11:19:04.466Z,99519.83
2019-03-10T11:21:43.700Z,99509.95
2019-03-10T11:24:21.957Z,99509.25
2019-03-10T11:27:09.760Z,99507.14
2019-03-10T11:30:01.612Z,99504.83
2019-03-10T11:32:50.811Z,99501.53
2019-03-10T11:35:29.976Z,99496.27
2019-03-10T11:38:10.036Z,99496.79
2019-03-10T11:40:59.421Z,99494.29
2019-03-10T11:44:00.785Z,99486.86
2019-03-10T11:46:49.213Z,99481.86
2019-03-10T11:49:34.218Z,99480.58
2019-03-10T11:52:26.482Z,99479.70
2019-03-10T11:55:09.122Z,99473.33
2019-03-10T11:58:01.440Z,99467.16
2019-03-10T12:00:50.626Z,99473.20
2019-03-10T12:03:43.279Z,99458.78
2019-03-10T12:06:45.062Z,99456.84
2019-03-10T12:09:21.057Z,99455.95
2019-03-10T12:11:51.381Z,99448.39
2019-03-10T12:14:22.482Z,99456.23
2019-03-10T12:16:52.991Z,99461.03
2019-03-10T12:19:23.958Z,99465.80
2019-03-10T12:21:56.525Z,99468.75
2019-03-10T12:24:27.228Z,99468.50
2019-03-10T12:26:58.065Z,99446.86
2019-03-10T12:29:28.515Z,99431.63
2019-03-10T12:31:58.998Z,99439.11
2019-03-10T12:34:30.242Z,99429.26
2019-03-10T12:37:00.455Z,99418.45
2019-03-10T12:39:31.018Z,99410.91
2019-03-10T12:42:01.722Z,99410.91
2019-03-10T12:44:32.119Z,99407.23
2019-03-10T12:47:03.622Z,99408.23
2019-03-10T12:49:33.766Z,99404.13
2019-03-10T12:52:03.991Z,99401.73
2019-03-10T12:54:34.595Z,99401.44
2019-03-10T12:57:05.043Z,99392.23
2019-03-10T12:59:35.273Z,99393.87
2019-03-10T13:02:06.318Z,99379.34
2019-03-10T13:04:37.210Z,99379.99
2019-03-10T13:07:07.898Z,99381.59
2019-03-10T13:09:38.337Z,99385.81
2019-03-10T13:12:08.912Z,99382.89
2019-03-10T13:14:39.165Z,99371.48
2019-03-10T13:17:09.590Z,99380.53
2019-03-10T13:19:39.841Z,99376.83
2019-03-10T13:22:10.359Z,99379.34
2019-03-10T13:24:40.590Z,99368.53
2019-03-10T13:27:11.112Z,99368.47
2019-03-10T13:29:41.772Z,99357.49
2019-03-10T13:32:12.761Z,99365.03
2019-03-10T13:34:42.940Z,99356.56
2019-03-10T13:37:13.166Z,99358.37
2019-03-10T13:39:43.359Z,99355.04
2019-03-10T13:42:13.577Z,99353.70
2019-03-10T13:44:43.850Z,99350.41
2019-03-10T13:47:14.400Z,99348.45
2019-03-10T13:49:44.588Z,99349.84
2019-03-10T13:52:15.362Z,99350.58
2019-03-10T13:54:45.531Z,99346.05
2019-03-10T13:57:15.777Z,99337.10
2019-03-10T13:59:46.144Z,99338.08
2019-03-10T14:02:17.044Z,99342.19
2019-03-10T14:04:47.755Z,99343.67
2019-03-10T14:07:17.962Z,99352.91
2019-03-10T14:09:49.100Z,99350.61
2019-03-10T14:12:19.365Z,99350.45
2019-03-10T14:14:49.894Z,99354.38
2019-03-10T14:17:20.195Z,99347.29
2019-03-10T14:19:50.737Z,99350.45
2019-03-10T14:22:21.887Z,99351.97
2019-03-10T14:24:52.035Z,99349.80
2019-03-10T14:27:22.509Z,99345.41
2019-03-10T14:29:52.998Z,99351.70
2019-03-10T14:32:23.167Z,99354.52
2019-03-10T14:34:53.684Z,99355.54
2019-03-10T14:37:23.898Z,99366.81
2019-03-10T14:39:54.116Z,99355.59
2019-03-10T14:42:24.951Z,99354.85
2019-03-10T14:44:55.807Z,99349.80
2019-03-10T14:47:26.018Z,99354.77
2019-03-10T14:49:56.834Z,99350.59
2019-03-10T14:52:30.076Z,99359.97
2019-03-10T14:55:00.605Z,99358.77
2019-03-10T14:57:30.702Z,99351.09
2019-03-10T15:00:01.054Z,99359.83
2019-03-10T15:02:31.230Z,99362.84
2019-03-10T15:05:01.398Z,99355.25
2019-03-10T15:07:31.930Z,99357.07
2019-03-10T15:10:02.437Z,99355.61
2019-03-10T15:12:32.983Z,99351.14
2019-03-10T15:15:03.252Z,99348.38
2019-03-10T15:17:33.856Z,99347.54
2019-03-10T15:20:04.091Z,99345.98
2019-03-10T15:22:34.423Z,99344.78
2019-03-10T15:25:05.341Z,99343.45
2019-03-10T15:27:35.664Z,99339.95
2019-03-10T15:30:07.635Z,99338.29
2019-03-10T15:32:37.828Z,99340.20
2019-03-10T15:35:08.355Z,99340.20
2019-03-10T15:37:38.920Z,99345.75
2019-03-10T15:40:10.751Z,99345.65
2019-03-10T15:42:41.100Z,99352.91
2019-03-10T15:45:12.204Z,99359.19
2019-03-10T15:47:42.517Z,99354.23
2019-03-10T15:50:23.630Z,99354.94
2019-03-10T15:52:53.845Z,99351.45
2019-03-10T15:55:24.523Z,99353.00
2019-03-10T15:57:54.747Z,99362.91
2019-03-10T16:00:25.119Z,99353.52
2019-03-10T16:02:55.450Z,99361.70
2019-03-10T16:05:26.073Z,99371.00
2019-03-10T16:07:56.252Z,99374.77
2019-03-10T16:10:26.785Z,99376.69
2019-03-10T16:12:57.530Z,99374.03
2019-03-10T16:15:27.910Z,99381.02
2019-03-10T16:17:58.414Z,99377.66
2019-03-10T16:20:29.003Z,99383.69
2019-03-10T16:23:00.531Z,99389.00
2019-03-10T16:25:33.037Z,99392.00
2019-03-10T16:28:04.489Z,99398.38
2019-03-10T16:30:37.529Z,99403.58
2019-03-10T16:33:07.765Z,99405.13
2019-03-10T16:35:42.733Z,99409.47
2019-03-10T16:38:12.290Z,99416.91
2019-03-10T16:40:43.226Z,99421.50
2019-03-10T16:43:24.989Z,99416.67
2019-03-10T16:45:51.516Z,99427.49
2019-03-10T16:48:26.002Z,99424.96
2019-03-10T16:51:01.234Z,99433.40
2019-03-10T16:53:33.951Z,99442.52
2019-03-10T16:56:06.254Z,99446.50
2019-03-10T16:58:39.866Z,99456.47
2019-03-10T17:01:15.575Z,99458.88
2019-03-10T17:03:49.359Z,99463.45
2019-03-10T17:06:22.690Z,99465.45
2019-03-10T17:08:57.896Z,99477.25
2019-03-10T17:11:30.337Z,99482.64
2019-03-10T17:14:09.790Z,99493.59
2019-03-10T17:16:43.028Z,99503.09
2019-03-10T17:19:13.737Z,99505.38
2019-03-10T17:21:45.107Z,99509.05
2019-03-10T17:24:19.452Z,99517.97
2019-03-10T17:26:50.998Z,99518.56
2019-03-10T17:29:22.859Z,99522.14
2019-03-10T17:31:53.444Z,99524.14
2019-03-10T17:34:26.872Z,99533.42
2019-03-10T17:36:57.091Z,99545.06
2019-03-10T17:39:27.615Z,99550.11
2019-03-10T17:41:58.869Z,99554.67
2019-03-10T17:44:40.358Z,99559.06
2019-03-10T17:47:03.816Z,99581.66
2019-03-10T17:49:35.549Z,99571.14
2019-03-10T17:52:14.399Z,99581.55
2019-03-10T17:54:39.645Z,99584.80
2019-03-10T17:57:09.877Z,99592.73
2019-03-10T17:59:40.194Z,99602.05
2019-03-10T18:02:10.688Z,99600.24
2019-03-10T18:04:41.150Z,99604.06
2019-03-10T18:07:13.207Z,99614.07
2019-03-10T18:09:43.772Z,99617.56
2019-03-10T18:12:14.169Z,99623.71
2019-03-10T18:14:44.603Z,99634.08
2019-03-10T18:17:16.295Z,99633.34
2019-03-10T18:19:46.568Z,99642.61
2019-03-10T18:22:18.236Z,99644.74
2019-03-10T18:24:48.567Z,99649.48
2019-03-10T18:27:22.180Z,99660.29
2019-03-10T18:29:52.962Z,99660.88
2019-03-10T18:32:23.212Z,99669.30
2019-03-10T18:34:55.061Z,99664.11
2019-03-10T18:37:26.062Z,99676.04
2019-03-10T18:39:56.879Z,99679.08
2019-03-10T18:42:27.595Z,99683.47
2019-03-10T18:44:57.926Z,99681.78
2019-03-10T18:47:28.158Z,99694.08
2019-03-10T18:49:59.070Z,99700.53
2019-03-10T18:52:29.557Z,99701.75
2019-03-10T18:55:00.435Z,99705.61
2019-03-10T18:57:31.078Z,99711.86
2019-03-10T19:00:02.978Z,99723.03
2019-03-10T19:02:33.472Z,99725.37
2019-03-10T19:05:04.074Z,99727.00
2019-03-10T19:07:34.437Z,99729.07
2019-03-10T19:10:08.949Z,99741.18
2019-03-10T19:12:39.540Z,99740.44
2019-03-10T19:15:11.862Z,99747.90
2019-03-10T19:17:42.089Z,99751.59
2019-03-10T19:20:13.962Z,99753.12
2019-03-10T19:22:45.263Z,99755.19
2019-03-10T19:25:16.174Z,99761.05
2019-03-10T19:27:47.780Z,99761.42
2019-03-10T19:30:18.987Z,99768.21
2019-03-10T19:32:50.193Z,99778.15
2019-03-10T19:35:21.920Z,99779.67
2019-03-10T19:37:52.635Z,99782.22
2019-03-10T19:40:23.737Z,99784.66
2019-03-10T19:42:54.563Z,99789.77
2019-03-10T19:45:28.486Z,99789.30
2019-03-10T19:47:59.688Z,99791.09
2019-03-10T19:50:35.998Z,99804.42
2019-03-10T19:53:08.186Z,99802.42
2019-03-10T19:55:42.666Z,99811.67
2019-03-10T19:58:13.404Z,99810.35
2019-03-10T20:00:44.289Z,99818.86
2019-03-10T20:03:14.554Z,99825.09
2019-03-10T20:05:45.998Z,99828.31
2019-03-10T20:08:18.185Z,99827.56
2019-03-10T20:10:50.340Z,99831.31
2019-03-10T20:13:21.288Z,99839.55
2019-03-10T20:15:54.152Z,99841.59
2019-03-10T20:18:25.455Z,99841.14
2019-03-10T20:20:59.223Z,99845.48
2019-03-10T20:23:30.848Z,99846.95
2019-03-10T20:26:02.023Z,99846.68
2019-03-10T20:28:34.506Z,99853.76
2019-03-10T20:31:07.963Z,99856.22
2019-03-10T20:33:42.818Z,99864.63
2019-03-10T20:36:17.068Z,99865.56
2019-03-10T20:38:48.387Z,99878.84
2019-03-10T20:41:45.130Z,99871.39
2019-03-10T20:44:26.225Z,99879.98
2019-03-10T20:47:08.936Z,99882.24
2019-03-10T20:49:49.861Z,99891.49
2019-03-10T20:52:28.967Z,99898.10
2019-03-10T20:55:24.343Z,99903.01
2019-03-10T20:57:59.513Z,99902.78
2019-03-10T21:00:34.908Z,99909.30
2019-03-10T21:03:16.648Z,99911.09
2019-03-10T21:05:50.459Z,99920.05
2019-03-10T21:08:24.125Z,99915.39
2019-03-10T21:10:57.086Z,99920.01
2019-03-10T21:13:35.844Z,99928.97
2019-03-10T21:16:10.872Z,99931.77
2019-03-10T21:18:40.822Z,99929.87
2019-03-10T21:21:12.070Z,99938.50
2019-03-10T21:23:45.199Z,99939.83
2019-03-10T21:26:16.678Z,99942.47
2019-03-10T21:28:48.148Z,99947.84
2019-03-10T21:31:19.599Z,99950.57
2019-03-10T21:33:50.434Z,99950.19
2019-03-10T21:36:23.766Z,99956.80
2019-03-10T21:38:59.769Z,99957.73
2019-03-10T21:41:31.035Z,99958.88
2019-03-10T21:44:02.786Z,99957.46
2019-03-10T21:46:33.695Z,99958.69
2019-03-10T21:49:10.290Z,99968.35
2019-03-10T21:51:40.810Z,99962.22
2019-03-10T21:54:12.680Z,99970.52
2019-03-10T21:56:46.513Z,99971.14
2019-03-10T21:59:18.170Z,99975.86
2019-03-10T22:01:54.005Z,99969.73
2019-03-10T22:04:29.890Z,99975.48
2019-03-10T22:07:00.820Z,99979.06
2019-03-10T22:09:31.313Z,99977.75
2019-03-10T22:12:07.182Z,99989.81
2019-03-10T22:14:40.193Z,99990.37
2019-03-10T22:17:16.550Z,99989.05
2019-03-10T22:19:48.761Z,99994.33
2019-03-10T22:22:22.508Z,99999.14
2019-03-10T22:24:53.813Z,100004.89
2019-03-10T22:27:27.253Z,100004.66
2019-03-10T22:29:59.601Z,100008.62
2019-03-10T22:32:34.231Z,100016.34
2019-03-10T22:35:05.158Z,100016.98
2019-03-10T22:37:35.679Z,100019.86
2019-03-10T22:40:10.981Z,100018.88
2019-03-10T22:42:42.000Z,100026.48
2019-03-10T22:45:13.646Z,100028.35
2019-03-10T22:47:44.323Z,100028.05
2019-03-10T22:50:15.205Z,100021.45
2019-03-10T22:52:48.736Z,100028.05
2019-03-10T22:55:24.565Z,100027.67
2019-03-10T22:57:59.606Z,100025.89
2019-03-10T23:00:49.305Z,100034.10
2019-03-10T23:03:20.620Z,100036.19
2019-03-10T23:05:53.267Z,100032.09
2019-03-10T23:08:24.738Z,100027.95
2019-03-10T23:10:56.475Z,100033.06
2019-03-10T23:13:26.736Z,100035.61
2019-03-10T23:15:57.329Z,100032.45
2019-03-10T23:18:28.214Z,100030.86
2019-03-10T23:20:59.646Z,100035.83
2019-03-10T23:23:35.550Z,100028.88
2019-03-10T23:26:06.603Z,100030.02
2019-03-10T23:28:37.292Z,100035.36
2019-03-10T23:31:07.780Z,100034.19
2019-03-10T23:33:44.208Z,100031.09
2019-03-10T23:36:15.741Z,100029.06
2019-03-10T23:38:46.101Z,100029.44
2019-03-10T23:41:16.392Z,100030.39
2019-03-10T23:43:47.312Z,100035.11
2019-03-10T23:46:18.958Z,100039.92
2019-03-10T23:48:49.200Z,100044.17
2019-03-10T23:51:19.717Z,100049.46
2019-03-10T23:53:50.095Z,100047.56
2019-03-10T23:56:20.362Z,100047.00
2019-03-10T23:58:50.841Z,100045.03
